Time;durP1;ratioP1;P1;durP2;ratioP2;P2;SDS_P1;SDS_P2;PMS_P1;PMS_P2;Temp;Humidity;BMP_temperature;BMP_pressure;BME280_temperature;BME280_humidity;BME280_pressure;Samples;Min_cycle;Max_cycle;Signal;HPM_P1;HPM_P2
2021/12/03 00:00:37;;;;;;;20.88;9.05;;;;;;;;;;5122713;27;20056;-67
2021/12/03 00:03:04;;;;;;;17.40;8.38;;;;;;;;;;5121139;27;20429;-66
2021/12/03 00:05:30;;;;;;;22.42;10.63;;;;;;;;;;5111637;27;20052;-65
2021/12/03 00:07:57;;;;;;;24.80;11.30;;;;;;;;;;5125527;27;20063;-66
2021/12/03 00:10:25;;;;;;;16.23;9.40;;;;;;;;;;5123589;27;20143;-66
2021/12/03 00:12:52;;;;;;;15.82;9.68;;;;;;;;;;5117884;27;20047;-65
2021/12/03 00:15:20;;;;;;;19.95;9.70;;;;;;;;;;5129043;27;20051;-66
2021/12/03 00:17:46;;;;;;;22.38;9.90;;;;;;;;;;5129196;27;20146;-65
2021/12/03 00:20:14;;;;;;;18.67;10.27;;;;;;;;;;5110152;27;20575;-66
2021/12/03 00:22:42;;;;;;;20.95;10.52;;;;;;;;;;5107022;28;20505;-65
2021/12/03 00:25:09;;;;;;;25.27;10.93;;;;;;;;;;5113922;27;20147;-66
2021/12/03 00:27:36;;;;;;;17.70;9.52;;;;;;;;;;5127412;27;20051;-66
2021/12/03 00:30:04;;;;;;;22.17;9.85;;;;;;;;;;5131178;27;20056;-65
2021/12/03 00:32:30;;;;;;;27.85;11.73;;;;;;;;;;5125275;27;20058;-65
2021/12/03 00:34:56;;;;;;;18.70;10.63;;;;;;;;;;5123487;27;20055;-66
2021/12/03 00:37:23;;;;;;;26.70;11.23;;;;;;;;;;5132259;27;20055;-65
2021/12/03 00:39:49;;;;;;;23.15;10.73;;;;;;;;;;5123954;27;20055;-65
2021/12/03 00:42:17;;;;;;;26.95;11.60;;;;;;;;;;5111413;28;20052;-66
2021/12/03 00:44:49;;;;;;;23.27;10.23;;;;;;;;;;5127798;27;20056;-65
2021/12/03 00:47:15;;;;;;;26.20;12.52;;;;;;;;;;5120734;27;20051;-66
2021/12/03 00:49:42;;;;;;;26.02;11.63;;;;;;;;;;5110900;27;20075;-65
2021/12/03 00:52:08;;;;;;;24.38;11.63;;;;;;;;;;5112012;28;20442;-65
2021/12/03 00:54:34;;;;;;;28.58;12.00;;;;;;;;;;5111988;28;20048;-65
2021/12/03 00:57:01;;;;;;;20.73;11.00;;;;;;;;;;5110376;28;20052;-65
2021/12/03 00:59:27;;;;;;;22.42;10.98;;;;;;;;;;5111120;28;20873;-65
2021/12/03 01:01:53;;;;;;;25.15;11.15;;;;;;;;;;5110440;27;20046;-65
2021/12/03 01:04:20;;;;;;;19.77;10.50;;;;;;;;;;5111546;28;20091;-65
2021/12/03 01:06:47;;;;;;;25.30;11.13;;;;;;;;;;5110935;28;20054;-65
2021/12/03 01:09:14;;;;;;;31.67;11.27;;;;;;;;;;5116122;27;20101;-66
2021/12/03 01:11:41;;;;;;;22.20;11.43;;;;;;;;;;5111358;27;20058;-65
2021/12/03 01:14:07;;;;;;;23.15;11.10;;;;;;;;;;5111181;28;20136;-65
2021/12/03 01:16:34;;;;;;;22.08;11.82;;;;;;;;;;5125265;27;20059;-66
2021/12/03 01:19:01;;;;;;;23.88;10.63;;;;;;;;;;5131510;27;20515;-66
2021/12/03 01:21:27;;;;;;;21.70;11.50;;;;;;;;;;5131701;27;20056;-65
2021/12/03 01:23:54;;;;;;;20.67;11.00;;;;;;;;;;5112552;27;20060;-65
2021/12/03 01:26:20;;;;;;;28.27;11.98;;;;;;;;;;5124765;27;20420;-65
2021/12/03 01:28:47;;;;;;;37.08;12.27;;;;;;;;;;5129616;27;20254;-65
2021/12/03 01:31:15;;;;;;;26.95;11.27;;;;;;;;;;5121818;27;20051;-65
2021/12/03 01:33:42;;;;;;;29.85;12.13;;;;;;;;;;5131650;27;20052;-65
2021/12/03 01:36:08;;;;;;;23.50;11.10;;;;;;;;;;5130803;27;20139;-66
2021/12/03 01:38:35;;;;;;;24.05;10.57;;;;;;;;;;5130427;27;20048;-66
2021/12/03 01:41:01;;;;;;;26.98;11.45;;;;;;;;;;5110682;27;20059;-66
2021/12/03 01:43:28;;;;;;;31.48;11.63;;;;;;;;;;5110577;28;20056;-66
2021/12/03 01:45:56;;;;;;;21.83;10.35;;;;;;;;;;5129928;27;20058;-66
2021/12/03 01:48:22;;;;;;;24.55;11.23;;;;;;;;;;5130578;27;20130;-66
2021/12/03 01:50:50;;;;;;;21.38;10.20;;;;;;;;;;5126786;27;20047;-67
2021/12/03 01:53:17;;;;;;;27.75;10.85;;;;;;;;;;5111329;27;20429;-67
2021/12/03 01:55:45;;;;;;;26.33;10.43;;;;;;;;;;5118313;27;20051;-66
2021/12/03 01:58:11;;;;;;;21.35;9.15;;;;;;;;;;5131280;27;20135;-67
2021/12/03 02:00:51;;;;;;;20.80;9.73;;;;;;;;;;5112565;27;20075;-66
2021/12/03 02:03:18;;;;;;;16.92;9.20;;;;;;;;;;5131065;27;20072;-65
2021/12/03 02:05:45;;;;;;;24.48;9.82;;;;;;;;;;5130715;27;20138;-65
2021/12/03 02:08:12;;;;;;;21.92;10.80;;;;;;;;;;5118188;27;20067;-65
2021/12/03 02:10:39;;;;;;;17.52;9.63;;;;;;;;;;5115705;27;20055;-65
2021/12/03 02:13:07;;;;;;;26.83;10.50;;;;;;;;;;5100638;28;20080;-65
2021/12/03 02:15:33;;;;;;;24.08;9.88;;;;;;;;;;5112210;27;20150;-66
2021/12/03 02:18:00;;;;;;;28.77;10.10;;;;;;;;;;5109789;28;20062;-65
2021/12/03 02:20:27;;;;;;;19.58;9.13;;;;;;;;;;5109784;28;20066;-65
2021/12/03 02:22:54;;;;;;;23.00;8.90;;;;;;;;;;5118625;27;20142;-65
2021/12/03 02:25:22;;;;;;;24.42;9.77;;;;;;;;;;5122422;27;20062;-65
2021/12/03 02:27:50;;;;;;;17.20;8.63;;;;;;;;;;5129149;27;20047;-65
2021/12/03 02:30:16;;;;;;;17.17;8.52;;;;;;;;;;5128973;27;20135;-67
2021/12/03 02:32:42;;;;;;;20.17;8.15;;;;;;;;;;5111374;27;20616;-65
2021/12/03 02:35:09;;;;;;;22.02;8.40;;;;;;;;;;5109250;28;20548;-65
2021/12/03 02:37:36;;;;;;;18.30;8.73;;;;;;;;;;5109338;27;20080;-65
2021/12/03 02:40:04;;;;;;;19.88;8.73;;;;;;;;;;5110314;28;20182;-65
2021/12/03 02:42:30;;;;;;;20.55;8.77;;;;;;;;;;5090803;28;20143;-66
2021/12/03 02:44:57;;;;;;;18.73;8.23;;;;;;;;;;5119352;27;20047;-65
2021/12/03 02:47:23;;;;;;;22.90;7.88;;;;;;;;;;5128350;27;20058;-65
2021/12/03 02:49:49;;;;;;;20.73;7.75;;;;;;;;;;5125962;27;20055;-65
2021/12/03 02:52:16;;;;;;;26.80;8.88;;;;;;;;;;5127933;27;20085;-65
2021/12/03 02:54:42;;;;;;;28.83;9.00;;;;;;;;;;5130277;27;20175;-64
2021/12/03 02:57:09;;;;;;;20.83;8.10;;;;;;;;;;5128286;27;20132;-65
2021/12/03 02:59:35;;;;;;;20.15;7.78;;;;;;;;;;5120435;27;20134;-65
2021/12/03 03:02:02;;;;;;;20.75;7.40;;;;;;;;;;5129409;27;20052;-65
2021/12/03 03:04:48;;;;;;;22.52;7.60;;;;;;;;;;5126932;27;20047;-66
2021/12/03 03:07:15;;;;;;;28.58;9.00;;;;;;;;;;5124631;27;20052;-65
2021/12/03 03:09:44;;;;;;;19.85;7.93;;;;;;;;;;5108989;27;20060;-65
2021/12/03 03:12:12;;;;;;;17.45;7.25;;;;;;;;;;5108635;27;20054;-65
2021/12/03 03:15:07;;;;;;;17.25;7.57;;;;;;;;;;5109980;27;20147;-65
2021/12/03 03:17:34;;;;;;;15.43;6.88;;;;;;;;;;5095245;27;20044;-65
2021/12/03 03:20:01;;;;;;;18.70;7.65;;;;;;;;;;5108186;28;20886;-66
2021/12/03 03:22:27;;;;;;;16.95;7.40;;;;;;;;;;5112527;27;20184;-66
2021/12/03 03:24:55;;;;;;;20.27;7.05;;;;;;;;;;5129963;27;20040;-65
2021/12/03 03:27:21;;;;;;;14.82;6.25;;;;;;;;;;5119801;27;20514;-65
2021/12/03 03:29:48;;;;;;;21.45;7.05;;;;;;;;;;5119009;27;20162;-65
2021/12/03 03:32:15;;;;;;;17.45;6.53;;;;;;;;;;5121113;27;20123;-65
2021/12/03 03:34:42;;;;;;;17.35;6.45;;;;;;;;;;5113902;27;20043;-65
2021/12/03 03:37:09;;;;;;;15.82;6.28;;;;;;;;;;5109355;27;20143;-65
2021/12/03 03:39:35;;;;;;;17.95;5.90;;;;;;;;;;5108155;28;20048;-66
2021/12/03 03:42:01;;;;;;;15.82;5.93;;;;;;;;;;5108891;27;20052;-65
2021/12/03 03:44:28;;;;;;;17.73;5.13;;;;;;;;;;5108861;27;20143;-65
2021/12/03 03:46:55;;;;;;;16.27;5.07;;;;;;;;;;5108982;27;20501;-65
2021/12/03 03:49:22;;;;;;;18.70;5.97;;;;;;;;;;5129406;27;20055;-65
2021/12/03 03:51:49;;;;;;;16.95;5.72;;;;;;;;;;5128502;27;20055;-67
2021/12/03 03:54:16;;;;;;;16.30;5.53;;;;;;;;;;5125471;27;20544;-66
2021/12/03 03:56:42;;;;;;;16.50;5.15;;;;;;;;;;5110196;27;22401;-65
2021/12/03 03:59:09;;;;;;;12.15;4.90;;;;;;;;;;5128865;27;20051;-66
2021/12/03 04:01:35;;;;;;;16.90;5.03;;;;;;;;;;5128205;27;20048;-65
2021/12/03 04:04:02;;;;;;;14.35;5.15;;;;;;;;;;5129443;27;20078;-66
2021/12/03 04:06:28;;;;;;;11.82;5.40;;;;;;;;;;5130535;27;20481;-65
2021/12/03 04:08:55;;;;;;;15.90;5.32;;;;;;;;;;5114588;27;21139;-65
2021/12/03 04:11:23;;;;;;;13.25;5.55;;;;;;;;;;5132072;27;20480;-66
2021/12/03 04:13:50;;;;;;;17.38;5.13;;;;;;;;;;5114094;27;20044;-66
2021/12/03 04:16:16;;;;;;;18.95;5.20;;;;;;;;;;5131231;27;20138;-66
2021/12/03 04:18:43;;;;;;;17.88;5.03;;;;;;;;;;5098813;27;20129;-65
2021/12/03 04:21:09;;;;;;;18.40;6.30;;;;;;;;;;5131907;27;20058;-65
2021/12/03 04:23:36;;;;;;;17.27;5.90;;;;;;;;;;5132384;27;20051;-66
2021/12/03 04:26:02;;;;;;;18.98;6.15;;;;;;;;;;5131497;27;20048;-66
2021/12/03 04:28:28;;;;;;;15.63;6.10;;;;;;;;;;5131756;27;20489;-65
2021/12/03 04:30:55;;;;;;;19.83;7.40;;;;;;;;;;5130392;27;20527;-65
2021/12/03 04:33:21;;;;;;;16.95;6.38;;;;;;;;;;5119918;27;20526;-65
2021/12/03 04:35:48;;;;;;;15.23;6.00;;;;;;;;;;5111850;28;20549;-65
2021/12/03 04:38:14;;;;;;;20.95;7.05;;;;;;;;;;5121297;27;20047;-66
2021/12/03 04:40:41;;;;;;;16.40;6.57;;;;;;;;;;5132652;27;20147;-65
2021/12/03 04:43:08;;;;;;;17.40;6.15;;;;;;;;;;5131455;27;20142;-65
2021/12/03 04:45:34;;;;;;;17.73;7.07;;;;;;;;;;5126649;27;20051;-65
2021/12/03 04:48:02;;;;;;;20.30;7.60;;;;;;;;;;5120232;27;20054;-66
2021/12/03 04:50:29;;;;;;;18.30;7.85;;;;;;;;;;5111745;28;20556;-66
2021/12/03 04:52:56;;;;;;;23.40;7.80;;;;;;;;;;5110681;28;20080;-65
2021/12/03 04:55:23;;;;;;;18.50;7.47;;;;;;;;;;5118185;27;20052;-67
2021/12/03 04:57:50;;;;;;;20.67;8.65;;;;;;;;;;5131606;27;20056;-67
2021/12/03 05:00:18;;;;;;;24.17;9.05;;;;;;;;;;5111703;27;20080;-68
2021/12/03 05:02:45;;;;;;;27.08;10.70;;;;;;;;;;5129596;27;20054;-67
2021/12/03 05:05:12;;;;;;;29.27;10.43;;;;;;;;;;5131400;27;20526;-67
2021/12/03 05:10:05;;;;;;;23.25;9.35;;;;;;;;;;5128408;27;20056;-68
2021/12/03 05:12:32;;;;;;;19.42;8.77;;;;;;;;;;5117602;27;20052;-68
2021/12/03 05:15:19;;;;;;;20.73;9.43;;;;;;;;;;5114755;27;20059;-65
2021/12/03 05:17:45;;;;;;;22.83;10.18;;;;;;;;;;5110393;28;20531;-65
2021/12/03 05:20:11;;;;;;;28.60;11.05;;;;;;;;;;5123456;27;20087;-67
2021/12/03 05:22:37;;;;;;;22.30;9.35;;;;;;;;;;5129854;27;20052;-67
2021/12/03 05:25:04;;;;;;;23.25;8.93;;;;;;;;;;5131163;27;20050;-67
2021/12/03 05:27:30;;;;;;;19.20;8.52;;;;;;;;;;5123941;27;21017;-67
2021/12/03 05:29:57;;;;;;;23.40;8.85;;;;;;;;;;5092644;28;20059;-65
2021/12/03 05:32:23;;;;;;;22.50;9.77;;;;;;;;;;5119920;27;20169;-65
2021/12/03 05:34:49;;;;;;;24.65;9.77;;;;;;;;;;5121030;27;20206;-66
2021/12/03 05:37:16;;;;;;;22.65;9.48;;;;;;;;;;5124908;27;20535;-65
2021/12/03 05:39:42;;;;;;;21.55;9.10;;;;;;;;;;5131720;27;20051;-65
2021/12/03 05:42:09;;;;;;;23.27;9.38;;;;;;;;;;5130319;27;20062;-65
2021/12/03 05:44:35;;;;;;;21.77;8.32;;;;;;;;;;5131011;27;20142;-65
2021/12/03 05:47:02;;;;;;;20.35;7.68;;;;;;;;;;5131697;27;20062;-65
2021/12/03 05:49:28;;;;;;;19.08;7.70;;;;;;;;;;5130869;27;20066;-66
2021/12/03 05:51:55;;;;;;;22.60;9.05;;;;;;;;;;5128790;27;20142;-65
2021/12/03 05:54:21;;;;;;;18.88;9.40;;;;;;;;;;5130964;27;20051;-65
2021/12/03 05:56:48;;;;;;;21.90;8.57;;;;;;;;;;5131544;27;20513;-65
2021/12/03 05:59:14;;;;;;;24.45;10.02;;;;;;;;;;5131176;27;20082;-65
2021/12/03 06:01:41;;;;;;;37.60;14.52;;;;;;;;;;5128464;27;20051;-65
2021/12/03 06:04:07;;;;;;;35.20;11.18;;;;;;;;;;5131189;27;20481;-65
2021/12/03 06:06:34;;;;;;;27.08;11.88;;;;;;;;;;5130288;27;20142;-65
2021/12/03 06:09:00;;;;;;;33.60;12.07;;;;;;;;;;5131398;27;20087;-66
2021/12/03 06:11:26;;;;;;;27.45;11.98;;;;;;;;;;5115117;27;20141;-66
2021/12/03 06:13:53;;;;;;;29.50;13.35;;;;;;;;;;5109740;28;20142;-66
2021/12/03 06:16:19;;;;;;;26.92;11.40;;;;;;;;;;5109654;28;20056;-65
2021/12/03 06:18:45;;;;;;;29.33;12.00;;;;;;;;;;5109870;28;20076;-65
2021/12/03 06:21:12;;;;;;;35.13;11.90;;;;;;;;;;5109702;27;20056;-66
2021/12/03 06:23:39;;;;;;;34.17;11.70;;;;;;;;;;5109624;28;20078;-65
2021/12/03 06:26:06;;;;;;;27.73;11.07;;;;;;;;;;5112921;27;20157;-65
2021/12/03 06:28:33;;;;;;;29.45;11.80;;;;;;;;;;5109377;28;20056;-66
2021/12/03 06:31:00;;;;;;;28.38;11.80;;;;;;;;;;5129341;27;20512;-65
2021/12/03 06:33:26;;;;;;;32.22;12.15;;;;;;;;;;5130703;27;20105;-65
2021/12/03 06:35:53;;;;;;;30.27;11.00;;;;;;;;;;5117783;27;20086;-65
2021/12/03 06:38:19;;;;;;;30.25;13.10;;;;;;;;;;5110246;28;20146;-67
2021/12/03 06:40:47;;;;;;;33.35;12.95;;;;;;;;;;5110041;28;20456;-66
2021/12/03 06:43:13;;;;;;;32.60;11.93;;;;;;;;;;5096141;27;20506;-65
2021/12/03 06:45:40;;;;;;;38.67;13.73;;;;;;;;;;5110775;27;20052;-66
2021/12/03 06:48:06;;;;;;;27.67;12.20;;;;;;;;;;5109568;28;20512;-66
2021/12/03 06:50:33;;;;;;;36.45;13.45;;;;;;;;;;5108954;28;20048;-66
2021/12/03 06:53:04;;;;;;;36.08;13.05;;;;;;;;;;5109831;28;20109;-66
2021/12/03 06:55:54;;;;;;;30.15;12.40;;;;;;;;;;5115867;27;20535;-66
2021/12/03 06:58:18;;;;;;;36.10;11.55;;;;;;;;;;5129811;27;20047;-65
2021/12/03 07:00:45;;;;;;;36.65;10.77;;;;;;;;;;5115127;27;20513;-65
2021/12/03 07:03:12;;;;;;;33.03;12.10;;;;;;;;;;5121001;27;20134;-66
2021/12/03 07:05:39;;;;;;;27.23;9.88;;;;;;;;;;5129352;27;20051;-65
2021/12/03 07:08:05;;;;;;;28.55;10.52;;;;;;;;;;5129904;27;20493;-66
2021/12/03 07:10:32;;;;;;;23.17;9.20;;;;;;;;;;5115096;27;20052;-65
2021/12/03 07:12:59;;;;;;;24.50;8.10;;;;;;;;;;5118823;27;20051;-66
2021/12/03 07:15:25;;;;;;;22.00;8.30;;;;;;;;;;5109319;28;20058;-65
2021/12/03 07:17:52;;;;;;;27.98;9.10;;;;;;;;;;5109234;28;20493;-65
2021/12/03 07:20:19;;;;;;;19.92;7.10;;;;;;;;;;5120764;27;20056;-66
2021/12/03 07:22:46;;;;;;;24.45;8.02;;;;;;;;;;5123371;27;20424;-66
2021/12/03 07:25:12;;;;;;;24.75;8.25;;;;;;;;;;5118211;27;20051;-65
2021/12/03 07:27:39;;;;;;;22.30;7.53;;;;;;;;;;5114582;27;20051;-66
2021/12/03 07:30:05;;;;;;;20.63;7.72;;;;;;;;;;5129127;27;20506;-65
2021/12/03 07:32:32;;;;;;;21.27;6.57;;;;;;;;;;5121534;27;20110;-65
2021/12/03 07:34:58;;;;;;;25.65;7.43;;;;;;;;;;5108801;27;20143;-65
2021/12/03 07:37:24;;;;;;;27.58;6.28;;;;;;;;;;5108117;27;20102;-65
2021/12/03 07:39:51;;;;;;;17.25;5.57;;;;;;;;;;5124432;27;20150;-65
2021/12/03 07:42:18;;;;;;;27.73;7.65;;;;;;;;;;5108757;28;20056;-65
2021/12/03 07:44:44;;;;;;;19.30;6.63;;;;;;;;;;5121484;27;20048;-65
2021/12/03 07:47:10;;;;;;;18.70;6.30;;;;;;;;;;5128929;27;20174;-66
2021/12/03 07:49:39;;;;;;;27.08;6.53;;;;;;;;;;5108874;27;20064;-66
2021/12/03 07:52:06;;;;;;;24.27;6.72;;;;;;;;;;5108431;28;20534;-66
2021/12/03 07:54:32;;;;;;;29.50;9.38;;;;;;;;;;5118003;27;20135;-68
2021/12/03 07:56:58;;;;;;;17.67;5.93;;;;;;;;;;5113822;27;20043;-66
2021/12/03 07:59:24;;;;;;;18.02;6.75;;;;;;;;;;5123687;27;20531;-65
2021/12/03 08:01:51;;;;;;;20.98;6.75;;;;;;;;;;5111579;27;20048;-66
2021/12/03 08:04:17;;;;;;;15.02;6.63;;;;;;;;;;5128592;27;20593;-66
2021/12/03 08:06:45;;;;;;;25.27;6.57;;;;;;;;;;5129490;27;20056;-66
2021/12/03 08:09:11;;;;;;;19.27;7.37;;;;;;;;;;5128276;27;20048;-65
2021/12/03 08:11:38;;;;;;;19.63;5.75;;;;;;;;;;5129667;27;20109;-66
2021/12/03 08:14:05;;;;;;;24.35;8.48;;;;;;;;;;5129430;27;20087;-65
2021/12/03 08:16:31;;;;;;;25.60;7.68;;;;;;;;;;5128434;27;20054;-65
2021/12/03 08:18:58;;;;;;;20.85;6.35;;;;;;;;;;5129379;27;20531;-65
2021/12/03 08:21:24;;;;;;;22.17;6.63;;;;;;;;;;5128992;27;20092;-65
2021/12/03 08:23:50;;;;;;;16.33;5.40;;;;;;;;;;5128232;27;20166;-65
2021/12/03 08:26:17;;;;;;;17.98;5.65;;;;;;;;;;5129254;27;20078;-65
2021/12/03 08:28:43;;;;;;;21.33;5.28;;;;;;;;;;5129419;27;20054;-65
2021/12/03 08:31:14;;;;;;;21.10;6.30;;;;;;;;;;5128000;27;20058;-65
2021/12/03 08:33:41;;;;;;;412.33;66.80;;;;;;;;;;5127948;27;20600;-66
2021/12/03 08:36:07;;;;;;;22.13;5.65;;;;;;;;;;5128115;27;20079;-66
2021/12/03 08:38:34;;;;;;;15.55;5.35;;;;;;;;;;5128800;27;20155;-65
2021/12/03 08:41:10;;;;;;;17.58;5.55;;;;;;;;;;5128262;27;20604;-65
2021/12/03 08:43:36;;;;;;;19.30;5.50;;;;;;;;;;5126874;27;20086;-64
2021/12/03 08:46:11;;;;;;;19.27;6.65;;;;;;;;;;5115542;27;20306;-66
2021/12/03 08:48:41;;;;;;;16.27;5.53;;;;;;;;;;5108058;27;20143;-63
2021/12/03 08:51:34;;;;;;;17.02;5.57;;;;;;;;;;5110747;28;20143;-64
2021/12/03 08:56:39;;;;;;;17.38;6.20;;;;;;;;;;5111217;28;20429;-63
2021/12/03 08:59:06;;;;;;;24.73;6.18;;;;;;;;;;5110427;28;20048;-64
2021/12/03 09:01:32;;;;;;;22.98;6.88;;;;;;;;;;5111597;28;20144;-63
2021/12/03 09:03:59;;;;;;;25.77;7.25;;;;;;;;;;5112129;27;20083;-64
2021/12/03 09:06:26;;;;;;;23.23;6.85;;;;;;;;;;5110854;28;20553;-63
2021/12/03 09:08:53;;;;;;;29.23;7.00;;;;;;;;;;5110972;28;20052;-63
2021/12/03 09:11:20;;;;;;;26.73;6.80;;;;;;;;;;5111462;28;20051;-64
2021/12/03 09:13:48;;;;;;;20.52;5.90;;;;;;;;;;5110460;28;20059;-64
2021/12/03 09:16:16;;;;;;;27.20;6.95;;;;;;;;;;5111552;28;20056;-63
2021/12/03 09:18:46;;;;;;;30.25;5.88;;;;;;;;;;5111090;28;20082;-64
2021/12/03 09:26:29;;;;;;;21.63;5.55;;;;;;;;;;5123003;27;20059;-63
2021/12/03 09:29:06;;;;;;;27.25;6.28;;;;;;;;;;5119282;27;20066;-64
2021/12/03 09:31:35;;;;;;;26.63;5.90;;;;;;;;;;5131681;27;20553;-64
2021/12/03 09:34:02;;;;;;;25.42;4.88;;;;;;;;;;5131826;27;20517;-64
2021/12/03 09:36:28;;;;;;;18.58;5.15;;;;;;;;;;5132047;27;20178;-64
2021/12/03 09:38:55;;;;;;;23.83;5.22;;;;;;;;;;5131452;27;20083;-64
2021/12/03 09:41:21;;;;;;;21.67;4.75;;;;;;;;;;5129207;27;20096;-66
2021/12/03 09:43:49;;;;;;;21.02;4.70;;;;;;;;;;5120007;27;20058;-66
2021/12/03 09:46:20;;;;;;;20.27;4.78;;;;;;;;;;5131542;27;20483;-65
2021/12/03 09:51:16;;;;;;;20.85;4.20;;;;;;;;;;5111500;28;20138;-65
2021/12/03 09:56:30;;;;;;;18.23;3.38;;;;;;;;;;5101688;27;20054;-65
2021/12/03 10:01:45;;;;;;;18.70;3.50;;;;;;;;;;5117811;27;46325;-64
2021/12/03 10:12:37;;;;;;;20.38;3.58;;;;;;;;;;5110569;28;20050;-64
2021/12/03 10:15:06;;;;;;;17.35;3.20;;;;;;;;;;5118265;27;20873;-65
2021/12/03 10:28:41;;;;;;;11.50;3.17;;;;;;;;;;5129948;27;20051;-64
2021/12/03 10:31:56;;;;;;;13.90;3.78;;;;;;;;;;5130405;27;20062;-64
2021/12/03 10:36:51;;;;;;;18.63;3.17;;;;;;;;;;5110024;28;20163;-64
2021/12/03 10:39:35;;;;;;;18.90;4.13;;;;;;;;;;5109527;28;20558;-64
2021/12/03 10:44:44;;;;;;;12.05;4.40;;;;;;;;;;5110236;28;20052;-64
2021/12/03 10:50:04;;;;;;;24.40;3.70;;;;;;;;;;5115543;27;20062;-68
2021/12/03 10:52:40;;;;;;;14.75;4.03;;;;;;;;;;5108953;27;20060;-67
2021/12/03 11:26:39;;;;;;;15.50;4.05;;;;;;;;;;5113175;27;20048;-67
2021/12/03 11:39:53;;;;;;;12.70;3.15;;;;;;;;;;5130330;27;20056;-66
2021/12/03 11:56:27;;;;;;;9.48;3.03;;;;;;;;;;5109914;27;20105;-69
2021/12/03 12:24:12;;;;;;;12.35;3.10;;;;;;;;;;5124930;27;20105;-68
2021/12/03 12:33:07;;;;;;;11.80;3.30;;;;;;;;;;5132326;27;20052;-68
2021/12/03 12:36:09;;;;;;;10.48;2.95;;;;;;;;;;5132874;27;20472;-69
2021/12/03 13:24:20;;;;;;;8.55;2.90;;;;;;;;;;5122005;27;20056;-68
2021/12/03 13:36:05;;;;;;;9.15;3.70;;;;;;;;;;5112038;28;20110;-69
2021/12/03 13:57:54;;;;;;;8.38;3.60;;;;;;;;;;5115537;27;20150;-69
2021/12/03 14:03:07;;;;;;;12.70;4.00;;;;;;;;;;5111890;27;20340;-68
2021/12/03 14:05:56;;;;;;;9.93;3.63;;;;;;;;;;5110746;28;20060;-69
2021/12/03 14:08:53;;;;;;;8.32;3.90;;;;;;;;;;5118207;27;20061;-69
2021/12/03 14:11:57;;;;;;;10.65;3.95;;;;;;;;;;5118086;27;20054;-69
2021/12/03 14:37:09;;;;;;;7.35;5.00;;;;;;;;;;5117073;27;20516;-69
2021/12/03 14:40:10;;;;;;;11.40;6.03;;;;;;;;;;5122232;27;20150;-68
2021/12/03 14:45:03;;;;;;;11.55;6.40;;;;;;;;;;5125884;27;20482;-68
2021/12/03 14:47:47;;;;;;;9.80;6.07;;;;;;;;;;5118594;27;20052;-69
2021/12/03 14:53:11;;;;;;;11.45;7.32;;;;;;;;;;5110096;28;20056;-69
2021/12/03 14:55:38;;;;;;;13.35;7.18;;;;;;;;;;5114723;27;20102;-69
2021/12/03 14:58:10;;;;;;;12.88;7.15;;;;;;;;;;5123944;27;20052;-69
2021/12/03 15:03:22;;;;;;;13.60;8.63;;;;;;;;;;5109652;27;20129;-69
2021/12/03 15:08:37;;;;;;;14.30;9.88;;;;;;;;;;5118000;27;20090;-69
2021/12/03 15:19:07;;;;;;;16.63;11.55;;;;;;;;;;5127578;27;20055;-69
2021/12/03 15:24:38;;;;;;;19.15;10.38;;;;;;;;;;5111680;27;20060;-69
2021/12/03 15:32:26;;;;;;;;;;;;;;;;;;5116271;27;20080;-69
2021/12/03 16:03:31;;;;;;;19.88;14.25;;;;;;;;;;5113676;27;20059;-70
2021/12/03 16:04:32;;;;;;;18.08;12.48;;;;;;;;;;5126411;27;20519;-69
2021/12/03 16:12:29;;;;;;;15.93;10.77;;;;;;;;;;5128562;27;20535;-69
2021/12/03 16:17:43;;;;;;;19.92;13.88;;;;;;;;;;5114768;27;20714;-70
2021/12/03 16:22:50;;;;;;;21.92;15.15;;;;;;;;;;5128259;27;20129;-70
2021/12/03 16:43:40;;;;;;;18.30;11.40;;;;;;;;;;5122116;27;20055;-69
2021/12/03 16:44:45;;;;;;;19.75;15.00;;;;;;;;;;5125542;27;20058;-68
2021/12/03 16:52:30;;;;;;;20.50;14.90;;;;;;;;;;5108466;27;20056;-70
2021/12/03 16:55:11;;;;;;;;;;;;;;;;;;5121768;27;20134;-70
2021/12/03 16:57:39;;;;;;;19.70;13.10;;;;;;;;;;5091100;27;44372;-71
2021/12/03 17:00:37;;;;;;;23.95;17.13;;;;;;;;;;5121905;27;20086;-71
2021/12/03 17:03:07;;;;;;;22.13;16.20;;;;;;;;;;5123550;27;20062;-70
2021/12/03 17:13:45;;;;;;;26.85;17.85;;;;;;;;;;5128470;27;20151;-70
2021/12/03 17:16:48;;;;;;;27.77;19.77;;;;;;;;;;5130666;27;20139;-71
2021/12/03 17:22:29;;;;;;;27.13;18.02;;;;;;;;;;5126465;27;20941;-70
2021/12/03 17:44:29;;;;;;;26.52;18.08;;;;;;;;;;5119439;27;20062;-70
2021/12/03 17:46:56;;;;;;;23.83;15.73;;;;;;;;;;5128961;27;20079;-71
2021/12/03 17:49:33;;;;;;;26.95;19.40;;;;;;;;;;5121003;27;20509;-70
2021/12/03 17:55:12;;;;;;;22.08;16.52;;;;;;;;;;5114272;27;20063;-71
2021/12/03 18:00:36;;;;;;;27.23;18.55;;;;;;;;;;5118124;27;20066;-71
2021/12/03 18:03:08;;;;;;;23.13;17.08;;;;;;;;;;5118229;27;20146;-71
2021/12/03 18:06:06;;;;;;;24.75;17.25;;;;;;;;;;5117423;27;20521;-70
2021/12/03 18:08:48;;;;;;;24.95;16.65;;;;;;;;;;5116994;27;20740;-69
2021/12/03 18:43:10;;;;;;;26.13;18.65;;;;;;;;;;5118879;27;20458;-71
2021/12/03 18:54:46;;;;;;;28.45;19.20;;;;;;;;;;5121622;27;20054;-73
2021/12/03 18:57:20;;;;;;;27.17;18.20;;;;;;;;;;5123105;27;20117;-74
2021/12/03 18:59:59;;;;;;;29.23;19.65;;;;;;;;;;5121639;27;20134;-74
2021/12/03 19:02:26;;;;;;;34.95;20.55;;;;;;;;;;5125505;27;20062;-73
2021/12/03 19:05:00;;;;;;;32.78;20.85;;;;;;;;;;5122778;27;20113;-73
2021/12/03 19:10:19;;;;;;;31.52;19.40;;;;;;;;;;5117913;27;20056;-73
2021/12/03 19:12:53;;;;;;;32.53;20.33;;;;;;;;;;5117321;27;20048;-75
2021/12/03 19:15:19;;;;;;;34.17;19.60;;;;;;;;;;5118239;27;20058;-73
2021/12/03 19:17:48;;;;;;;30.45;19.83;;;;;;;;;;5119161;27;20138;-73
2021/12/03 19:20:17;;;;;;;32.83;20.02;;;;;;;;;;5124317;27;20062;-72
2021/12/03 19:22:43;;;;;;;25.67;17.10;;;;;;;;;;5119022;27;20051;-74
2021/12/03 19:25:10;;;;;;;29.08;17.88;;;;;;;;;;5112299;27;20126;-73
2021/12/03 19:27:38;;;;;;;32.10;19.80;;;;;;;;;;5121849;27;20138;-73
2021/12/03 19:30:05;;;;;;;34.60;21.02;;;;;;;;;;5120742;27;20148;-73
2021/12/03 19:32:31;;;;;;;33.35;19.85;;;;;;;;;;5127674;27;20044;-73
2021/12/03 19:34:58;;;;;;;31.13;19.90;;;;;;;;;;5121604;27;20047;-72
2021/12/03 19:37:28;;;;;;;30.23;18.77;;;;;;;;;;5116272;27;20074;-67
2021/12/03 19:39:57;;;;;;;48.25;23.77;;;;;;;;;;5122092;27;20055;-67
2021/12/03 19:42:29;;;;;;;34.72;21.63;;;;;;;;;;5110026;27;20131;-67
2021/12/03 19:44:59;;;;;;;30.27;18.38;;;;;;;;;;5122240;27;20061;-67
2021/12/03 19:47:32;;;;;;;28.00;17.15;;;;;;;;;;5127505;27;20048;-67
2021/12/03 19:50:10;;;;;;;31.45;18.88;;;;;;;;;;5129062;27;20055;-67
2021/12/03 19:52:45;;;;;;;32.00;19.73;;;;;;;;;;5113029;27;20047;-67
2021/12/03 19:55:12;;;;;;;33.10;18.27;;;;;;;;;;5125748;27;20154;-66
2021/12/03 19:57:38;;;;;;;33.25;19.92;;;;;;;;;;5127286;27;20423;-66
2021/12/03 20:00:05;;;;;;;34.85;19.98;;;;;;;;;;5129173;27;20425;-66
2021/12/03 20:02:32;;;;;;;54.13;22.98;;;;;;;;;;5126200;27;20055;-67
2021/12/03 20:04:59;;;;;;;31.98;18.35;;;;;;;;;;5124969;27;20055;-66
2021/12/03 20:07:25;;;;;;;32.13;19.23;;;;;;;;;;5123297;27;20055;-67
2021/12/03 20:10:03;;;;;;;25.40;15.48;;;;;;;;;;5120172;27;22303;-67
2021/12/03 20:12:33;;;;;;;35.22;20.17;;;;;;;;;;5121132;27;20151;-67
2021/12/03 20:15:02;;;;;;;27.98;16.55;;;;;;;;;;5110868;27;20044;-68
2021/12/03 20:17:34;;;;;;;27.95;18.20;;;;;;;;;;5112511;27;20062;-68
2021/12/03 20:20:03;;;;;;;29.48;18.67;;;;;;;;;;5124574;27;20205;-67
2021/12/03 20:22:57;;;;;;;33.17;19.40;;;;;;;;;;5112307;27;20135;-67
2021/12/03 20:25:47;;;;;;;29.90;18.15;;;;;;;;;;5125690;27;20562;-67
2021/12/03 20:28:20;;;;;;;28.83;17.83;;;;;;;;;;5125962;27;20055;-67
2021/12/03 20:30:49;;;;;;;35.42;20.27;;;;;;;;;;5129066;27;20076;-67
2021/12/03 20:36:29;;;;;;;32.88;19.90;;;;;;;;;;5127172;27;20055;-67
2021/12/03 20:38:58;;;;;;;31.33;18.92;;;;;;;;;;5124759;27;20066;-67
2021/12/03 20:44:07;;;;;;;37.47;21.75;;;;;;;;;;5129165;27;20139;-67
2021/12/03 20:47:06;;;;;;;30.83;19.60;;;;;;;;;;5119541;27;20055;-67
2021/12/03 20:49:32;;;;;;;29.40;17.02;;;;;;;;;;5130979;27;20557;-67
2021/12/03 20:58:37;;;;;;;30.80;18.38;;;;;;;;;;5125267;27;20150;-66
2021/12/03 21:08:42;;;;;;;25.58;16.35;;;;;;;;;;5119827;27;20139;-66
2021/12/03 21:11:24;;;;;;;24.98;15.55;;;;;;;;;;5119837;27;20051;-66
2021/12/03 21:13:52;;;;;;;32.58;18.23;;;;;;;;;;5131948;27;20070;-66
2021/12/03 21:16:46;;;;;;;26.98;17.35;;;;;;;;;;5131177;27;20083;-67
2021/12/03 21:19:29;;;;;;;29.55;17.98;;;;;;;;;;5124757;27;20078;-67
2021/12/03 21:22:03;;;;;;;26.50;16.33;;;;;;;;;;5127325;27;20054;-67
2021/12/03 21:24:33;;;;;;;30.85;18.48;;;;;;;;;;5119950;27;20090;-67
2021/12/03 21:27:06;;;;;;;23.83;15.65;;;;;;;;;;5129209;27;20052;-67
2021/12/03 21:32:18;;;;;;;28.63;16.80;;;;;;;;;;5130498;27;20052;-68
2021/12/03 21:40:25;;;;;;;20.50;13.30;;;;;;;;;;5125337;27;20055;-67
2021/12/03 21:42:51;;;;;;;21.45;14.48;;;;;;;;;;5131022;27;20150;-67
2021/12/03 21:45:19;;;;;;;34.10;18.48;;;;;;;;;;5132028;27;20134;-67
2021/12/03 21:47:45;;;;;;;24.73;16.13;;;;;;;;;;5130818;27;20052;-67